Terminal Aerodrome Forecast
Issued by NWS

Home | Current Version | Previous Version | Graphics & Text | Print | Product List | Glossary On
Versions: 1 2 3 4 5 6 7 8 9 10 11 12 13 14 15 16 17 18 19 20 21 22 23 24 25 26 27 28 29 30 31 32 33 34 35 36 37 38 39 40 41 42 43 44 45 46 47 48 49 50
000
FTUS43 KLOT 260300 AAA
TAFGYY
TAF AMD
KGYY 260309Z 2603/2624 02012G16KT P6SM OVC022
     FM260500 02009KT P6SM SCT025
     FM260800 VRB04KT P6SM BKN150
     FM262000 17005KT P6SM OVC025 PROB30 2621/2624 2SM -SN OVC015=

USA.gov is the U.S. government's official web portal to all federal, state and local government web resources and services.